sensor_id;sensor_type;location;lat;lon;timestamp;temperature;humidity
8684;DHT22;4379;59.744;18.206;2023-10-31T00:01:23;6.30;99.90
8684;DHT22;4379;59.744;18.206;2023-10-31T00:03:50;6.40;99.90
8684;DHT22;4379;59.744;18.206;2023-10-31T00:06:17;6.40;99.90
8684;DHT22;4379;59.744;18.206;2023-10-31T00:08:44;6.40;99.90
8684;DHT22;4379;59.744;18.206;2023-10-31T00:11:11;6.50;99.90
8684;DHT22;4379;59.744;18.206;2023-10-31T00:13:39;6.50;99.90
8684;DHT22;4379;59.744;18.206;2023-10-31T00:16:06;6.60;99.90
8684;DHT22;4379;59.744;18.206;2023-10-31T00:18:33;6.60;99.90
8684;DHT22;4379;59.744;18.206;2023-10-31T00:21:00;6.60;99.90
8684;DHT22;4379;59.744;18.206;2023-10-31T00:23:27;6.60;99.90
8684;DHT22;4379;59.744;18.206;2023-10-31T00:25:54;6.60;99.90
8684;DHT22;4379;59.744;18.206;2023-10-31T00:28:21;6.50;99.90
8684;DHT22;4379;59.744;18.206;2023-10-31T00:30:48;6.60;99.90
8684;DHT22;4379;59.744;18.206;2023-10-31T00:33:15;6.60;99.90
8684;DHT22;4379;59.744;18.206;2023-10-31T00:35:43;6.60;99.90
8684;DHT22;4379;59.744;18.206;2023-10-31T00:38:12;6.60;99.90
8684;DHT22;4379;59.744;18.206;2023-10-31T00:40:39;6.70;99.90
8684;DHT22;4379;59.744;18.206;2023-10-31T00:43:06;6.80;99.90
8684;DHT22;4379;59.744;18.206;2023-10-31T00:45:34;6.90;99.90
8684;DHT22;4379;59.744;18.206;2023-10-31T00:48:01;6.90;99.90
8684;DHT22;4379;59.744;18.206;2023-10-31T00:50:28;7.10;99.90
8684;DHT22;4379;59.744;18.206;2023-10-31T00:52:55;7.10;99.90
8684;DHT22;4379;59.744;18.206;2023-10-31T00:55:23;7.20;99.90
8684;DHT22;4379;59.744;18.206;2023-10-31T00:57:50;7.20;99.90
8684;DHT22;4379;59.744;18.206;2023-10-31T01:00:17;7.20;99.90
8684;DHT22;4379;59.744;18.206;2023-10-31T01:02:44;7.30;99.90
8684;DHT22;4379;59.744;18.206;2023-10-31T01:05:11;7.40;99.90
8684;DHT22;4379;59.744;18.206;2023-10-31T01:07:38;7.50;99.90
8684;DHT22;4379;59.744;18.206;2023-10-31T01:10:06;7.60;99.90
8684;DHT22;4379;59.744;18.206;2023-10-31T01:12:33;7.60;99.90
8684;DHT22;4379;59.744;18.206;2023-10-31T01:15:01;7.60;99.90
8684;DHT22;4379;59.744;18.206;2023-10-31T01:17:28;7.70;99.90
8684;DHT22;4379;59.744;18.206;2023-10-31T01:19:55;7.80;99.90
8684;DHT22;4379;59.744;18.206;2023-10-31T01:22:22;7.90;99.90
8684;DHT22;4379;59.744;18.206;2023-10-31T01:24:49;7.90;99.90
8684;DHT22;4379;59.744;18.206;2023-10-31T01:27:16;8.00;99.90
8684;DHT22;4379;59.744;18.206;2023-10-31T01:29:43;7.90;99.90
8684;DHT22;4379;59.744;18.206;2023-10-31T01:32:10;7.90;99.90
8684;DHT22;4379;59.744;18.206;2023-10-31T01:34:48;8.00;99.90
8684;DHT22;4379;59.744;18.206;2023-10-31T01:37:15;8.00;99.90
8684;DHT22;4379;59.744;18.206;2023-10-31T01:39:44;8.00;99.90
8684;DHT22;4379;59.744;18.206;2023-10-31T01:42:14;8.00;99.90
8684;DHT22;4379;59.744;18.206;2023-10-31T01:44:42;7.90;99.90
8684;DHT22;4379;59.744;18.206;2023-10-31T01:47:09;7.90;99.90
8684;DHT22;4379;59.744;18.206;2023-10-31T01:49:36;7.90;99.90
8684;DHT22;4379;59.744;18.206;2023-10-31T01:52:04;7.90;99.90
8684;DHT22;4379;59.744;18.206;2023-10-31T01:54:35;7.90;99.90
8684;DHT22;4379;59.744;18.206;2023-10-31T01:57:04;8.00;99.90
8684;DHT22;4379;59.744;18.206;2023-10-31T01:59:32;8.00;99.90
8684;DHT22;4379;59.744;18.206;2023-10-31T02:02:00;8.00;99.90
8684;DHT22;4379;59.744;18.206;2023-10-31T02:04:28;7.90;99.90
8684;DHT22;4379;59.744;18.206;2023-10-31T02:06:55;7.90;99.90
8684;DHT22;4379;59.744;18.206;2023-10-31T02:09:22;7.90;99.90
8684;DHT22;4379;59.744;18.206;2023-10-31T02:11:54;7.90;99.90
8684;DHT22;4379;59.744;18.206;2023-10-31T02:14:24;7.90;99.90
8684;DHT22;4379;59.744;18.206;2023-10-31T02:16:51;8.00;99.90
8684;DHT22;4379;59.744;18.206;2023-10-31T02:19:21;8.00;99.90
8684;DHT22;4379;59.744;18.206;2023-10-31T02:21:48;8.00;99.90
8684;DHT22;4379;59.744;18.206;2023-10-31T02:24:15;8.00;99.90
8684;DHT22;4379;59.744;18.206;2023-10-31T02:26:42;8.00;99.90
8684;DHT22;4379;59.744;18.206;2023-10-31T02:29:10;8.00;99.90
8684;DHT22;4379;59.744;18.206;2023-10-31T02:31:37;8.00;99.90
8684;DHT22;4379;59.744;18.206;2023-10-31T02:34:04;8.00;99.90
8684;DHT22;4379;59.744;18.206;2023-10-31T02:36:32;8.00;99.90
8684;DHT22;4379;59.744;18.206;2023-10-31T02:39:01;8.00;99.90
8684;DHT22;4379;59.744;18.206;2023-10-31T02:41:28;8.00;99.90
8684;DHT22;4379;59.744;18.206;2023-10-31T02:43:55;8.00;99.90
8684;DHT22;4379;59.744;18.206;2023-10-31T02:46:22;8.00;99.90
8684;DHT22;4379;59.744;18.206;2023-10-31T02:48:49;8.10;99.90
8684;DHT22;4379;59.744;18.206;2023-10-31T02:51:17;8.10;99.90
8684;DHT22;4379;59.744;18.206;2023-10-31T02:53:44;8.10;99.90
8684;DHT22;4379;59.744;18.206;2023-10-31T02:56:11;8.10;99.90
8684;DHT22;4379;59.744;18.206;2023-10-31T02:58:38;8.00;99.90
8684;DHT22;4379;59.744;18.206;2023-10-31T03:01:05;8.10;99.90
8684;DHT22;4379;59.744;18.206;2023-10-31T03:03:33;8.10;99.90
8684;DHT22;4379;59.744;18.206;2023-10-31T03:06:00;8.10;99.90
8684;DHT22;4379;59.744;18.206;2023-10-31T03:08:27;8.10;99.90
8684;DHT22;4379;59.744;18.206;2023-10-31T03:10:55;8.20;99.90
8684;DHT22;4379;59.744;18.206;2023-10-31T03:13:22;8.10;99.90
8684;DHT22;4379;59.744;18.206;2023-10-31T03:15:50;8.10;99.90
8684;DHT22;4379;59.744;18.206;2023-10-31T03:18:17;8.10;99.90
8684;DHT22;4379;59.744;18.206;2023-10-31T03:20:45;8.10;99.90
8684;DHT22;4379;59.744;18.206;2023-10-31T03:23:13;8.10;99.90
8684;DHT22;4379;59.744;18.206;2023-10-31T03:25:40;8.10;99.90
8684;DHT22;4379;59.744;18.206;2023-10-31T03:28:19;8.10;99.90
8684;DHT22;4379;59.744;18.206;2023-10-31T03:30:48;8.00;99.90
8684;DHT22;4379;59.744;18.206;2023-10-31T03:33:16;8.10;99.90
8684;DHT22;4379;59.744;18.206;2023-10-31T03:35:44;8.10;99.90
8684;DHT22;4379;59.744;18.206;2023-10-31T03:38:11;8.10;99.90
8684;DHT22;4379;59.744;18.206;2023-10-31T03:40:39;8.00;99.90
8684;DHT22;4379;59.744;18.206;2023-10-31T03:43:06;8.00;99.90
8684;DHT22;4379;59.744;18.206;2023-10-31T03:45:33;8.00;99.90
8684;DHT22;4379;59.744;18.206;2023-10-31T03:48:00;8.00;99.90
8684;DHT22;4379;59.744;18.206;2023-10-31T03:50:27;8.00;99.90
8684;DHT22;4379;59.744;18.206;2023-10-31T03:52:54;8.00;99.90
8684;DHT22;4379;59.744;18.206;2023-10-31T03:55:21;8.00;99.90
8684;DHT22;4379;59.744;18.206;2023-10-31T03:57:48;8.00;99.90
8684;DHT22;4379;59.744;18.206;2023-10-31T04:00:16;8.00;99.90
8684;DHT22;4379;59.744;18.206;2023-10-31T04:02:43;8.00;99.90
8684;DHT22;4379;59.744;18.206;2023-10-31T04:05:10;8.10;99.90
8684;DHT22;4379;59.744;18.206;2023-10-31T04:07:37;8.20;99.90
8684;DHT22;4379;59.744;18.206;2023-10-31T04:10:05;8.20;99.90
8684;DHT22;4379;59.744;18.206;2023-10-31T04:12:33;8.20;99.90
8684;DHT22;4379;59.744;18.206;2023-10-31T04:15:01;8.20;99.90
8684;DHT22;4379;59.744;18.206;2023-10-31T04:17:28;8.30;99.90
8684;DHT22;4379;59.744;18.206;2023-10-31T04:19:55;8.30;99.90
8684;DHT22;4379;59.744;18.206;2023-10-31T04:22:22;8.20;99.90
8684;DHT22;4379;59.744;18.206;2023-10-31T04:24:49;8.00;99.90
8684;DHT22;4379;59.744;18.206;2023-10-31T04:27:16;7.70;99.90
8684;DHT22;4379;59.744;18.206;2023-10-31T04:29:44;7.70;99.90
8684;DHT22;4379;59.744;18.206;2023-10-31T04:32:11;7.60;99.90
8684;DHT22;4379;59.744;18.206;2023-10-31T04:34:39;7.40;99.90
8684;DHT22;4379;59.744;18.206;2023-10-31T04:37:07;7.20;99.90
8684;DHT22;4379;59.744;18.206;2023-10-31T04:39:34;6.90;99.90
8684;DHT22;4379;59.744;18.206;2023-10-31T04:42:01;6.70;99.90
8684;DHT22;4379;59.744;18.206;2023-10-31T04:44:28;6.50;99.90
8684;DHT22;4379;59.744;18.206;2023-10-31T04:46:57;6.50;99.90
8684;DHT22;4379;59.744;18.206;2023-10-31T04:49:24;6.30;99.90
8684;DHT22;4379;59.744;18.206;2023-10-31T04:51:51;6.20;99.90
8684;DHT22;4379;59.744;18.206;2023-10-31T04:54:19;6.20;99.90
8684;DHT22;4379;59.744;18.206;2023-10-31T04:56:47;6.30;99.90
8684;DHT22;4379;59.744;18.206;2023-10-31T04:59:14;6.30;99.90
8684;DHT22;4379;59.744;18.206;2023-10-31T05:01:41;6.30;99.90
8684;DHT22;4379;59.744;18.206;2023-10-31T05:04:14;6.30;99.90
8684;DHT22;4379;59.744;18.206;2023-10-31T05:06:41;6.20;99.90
8684;DHT22;4379;59.744;18.206;2023-10-31T05:09:08;5.90;99.90
8684;DHT22;4379;59.744;18.206;2023-10-31T05:11:38;5.80;99.90
8684;DHT22;4379;59.744;18.206;2023-10-31T05:14:06;5.70;99.90
8684;DHT22;4379;59.744;18.206;2023-10-31T05:16:39;5.60;99.90
8684;DHT22;4379;59.744;18.206;2023-10-31T05:19:07;5.80;99.90
8684;DHT22;4379;59.744;18.206;2023-10-31T05:21:34;5.40;99.90
8684;DHT22;4379;59.744;18.206;2023-10-31T05:24:01;5.40;99.90
8684;DHT22;4379;59.744;18.206;2023-10-31T05:26:28;5.40;99.90
8684;DHT22;4379;59.744;18.206;2023-10-31T05:28:57;5.10;99.90
8684;DHT22;4379;59.744;18.206;2023-10-31T05:31:25;5.20;99.90
8684;DHT22;4379;59.744;18.206;2023-10-31T05:33:52;5.40;99.90
8684;DHT22;4379;59.744;18.206;2023-10-31T05:36:24;5.40;99.90
8684;DHT22;4379;59.744;18.206;2023-10-31T05:38:52;5.50;99.90
8684;DHT22;4379;59.744;18.206;2023-10-31T05:41:19;5.50;99.90
8684;DHT22;4379;59.744;18.206;2023-10-31T05:43:46;5.50;99.90
8684;DHT22;4379;59.744;18.206;2023-10-31T05:46:13;5.60;99.90
8684;DHT22;4379;59.744;18.206;2023-10-31T05:48:44;5.60;99.90
8684;DHT22;4379;59.744;18.206;2023-10-31T05:51:18;5.70;99.90
8684;DHT22;4379;59.744;18.206;2023-10-31T05:53:47;5.70;99.90
8684;DHT22;4379;59.744;18.206;2023-10-31T05:56:15;5.60;99.90
8684;DHT22;4379;59.744;18.206;2023-10-31T05:58:43;5.50;99.90
8684;DHT22;4379;59.744;18.206;2023-10-31T06:01:10;5.50;99.90
8684;DHT22;4379;59.744;18.206;2023-10-31T06:03:37;5.40;99.90
8684;DHT22;4379;59.744;18.206;2023-10-31T06:06:07;5.30;99.90
8684;DHT22;4379;59.744;18.206;2023-10-31T06:08:35;5.10;99.90
8684;DHT22;4379;59.744;18.206;2023-10-31T06:11:03;5.20;99.90
8684;DHT22;4379;59.744;18.206;2023-10-31T06:13:30;5.30;99.90
8684;DHT22;4379;59.744;18.206;2023-10-31T06:16:01;5.30;99.90
8684;DHT22;4379;59.744;18.206;2023-10-31T06:18:28;5.40;99.90
8684;DHT22;4379;59.744;18.206;2023-10-31T06:20:56;5.20;99.90
8684;DHT22;4379;59.744;18.206;2023-10-31T06:23:23;5.20;99.90
8684;DHT22;4379;59.744;18.206;2023-10-31T06:25:50;5.30;99.90
8684;DHT22;4379;59.744;18.206;2023-10-31T06:28:18;5.20;99.90
8684;DHT22;4379;59.744;18.206;2023-10-31T06:30:45;5.30;99.90
8684;DHT22;4379;59.744;18.206;2023-10-31T06:33:12;5.40;99.90
8684;DHT22;4379;59.744;18.206;2023-10-31T06:35:39;5.30;99.90
8684;DHT22;4379;59.744;18.206;2023-10-31T06:38:06;5.30;99.90
8684;DHT22;4379;59.744;18.206;2023-10-31T06:40:33;5.20;99.90
8684;DHT22;4379;59.744;18.206;2023-10-31T06:43:02;5.30;99.90
8684;DHT22;4379;59.744;18.206;2023-10-31T06:45:29;5.30;99.90
8684;DHT22;4379;59.744;18.206;2023-10-31T06:47:56;5.20;99.90
8684;DHT22;4379;59.744;18.206;2023-10-31T06:50:23;5.20;99.90
8684;DHT22;4379;59.744;18.206;2023-10-31T06:52:51;5.20;99.90
8684;DHT22;4379;59.744;18.206;2023-10-31T06:55:18;5.20;99.90
8684;DHT22;4379;59.744;18.206;2023-10-31T06:57:45;5.20;99.90
8684;DHT22;4379;59.744;18.206;2023-10-31T07:00:12;5.30;99.90
8684;DHT22;4379;59.744;18.206;2023-10-31T07:02:39;5.20;99.90
8684;DHT22;4379;59.744;18.206;2023-10-31T07:05:07;5.20;99.90
8684;DHT22;4379;59.744;18.206;2023-10-31T07:07:35;5.30;99.90
8684;DHT22;4379;59.744;18.206;2023-10-31T07:10:02;5.30;99.90
8684;DHT22;4379;59.744;18.206;2023-10-31T07:12:29;5.30;99.90
8684;DHT22;4379;59.744;18.206;2023-10-31T07:14:56;5.20;99.90
8684;DHT22;4379;59.744;18.206;2023-10-31T07:17:25;5.10;99.90
8684;DHT22;4379;59.744;18.206;2023-10-31T07:19:53;4.90;99.90
8684;DHT22;4379;59.744;18.206;2023-10-31T07:22:20;4.80;99.90
8684;DHT22;4379;59.744;18.206;2023-10-31T07:24:47;4.80;99.90
8684;DHT22;4379;59.744;18.206;2023-10-31T07:27:14;5.00;99.90
8684;DHT22;4379;59.744;18.206;2023-10-31T07:29:41;5.10;99.90
8684;DHT22;4379;59.744;18.206;2023-10-31T07:32:09;5.30;99.90
8684;DHT22;4379;59.744;18.206;2023-10-31T07:34:40;5.30;99.90
8684;DHT22;4379;59.744;18.206;2023-10-31T07:37:08;5.30;99.90
8684;DHT22;4379;59.744;18.206;2023-10-31T07:39:35;5.30;99.90
8684;DHT22;4379;59.744;18.206;2023-10-31T07:42:03;5.30;99.90
8684;DHT22;4379;59.744;18.206;2023-10-31T07:44:30;5.30;99.90
8684;DHT22;4379;59.744;18.206;2023-10-31T07:46:57;5.40;99.90
8684;DHT22;4379;59.744;18.206;2023-10-31T07:49:26;5.40;99.90
8684;DHT22;4379;59.744;18.206;2023-10-31T07:51:53;5.40;99.90
8684;DHT22;4379;59.744;18.206;2023-10-31T07:54:20;5.30;99.90
8684;DHT22;4379;59.744;18.206;2023-10-31T07:56:47;5.30;99.90
8684;DHT22;4379;59.744;18.206;2023-10-31T07:59:14;5.20;99.90
8684;DHT22;4379;59.744;18.206;2023-10-31T08:01:42;5.30;99.90
8684;DHT22;4379;59.744;18.206;2023-10-31T08:04:09;5.30;99.90
8684;DHT22;4379;59.744;18.206;2023-10-31T08:06:37;5.30;99.90
8684;DHT22;4379;59.744;18.206;2023-10-31T08:09:04;5.50;99.90
8684;DHT22;4379;59.744;18.206;2023-10-31T08:11:33;5.60;99.90
8684;DHT22;4379;59.744;18.206;2023-10-31T08:14:02;5.60;99.90
8684;DHT22;4379;59.744;18.206;2023-10-31T08:16:29;5.60;99.90
8684;DHT22;4379;59.744;18.206;2023-10-31T08:18:56;5.50;99.90
8684;DHT22;4379;59.744;18.206;2023-10-31T08:21:23;5.50;99.90
8684;DHT22;4379;59.744;18.206;2023-10-31T08:23:50;5.30;99.90
8684;DHT22;4379;59.744;18.206;2023-10-31T08:26:17;5.30;99.90
8684;DHT22;4379;59.744;18.206;2023-10-31T08:28:44;5.30;99.90
8684;DHT22;4379;59.744;18.206;2023-10-31T08:31:11;5.10;99.90
8684;DHT22;4379;59.744;18.206;2023-10-31T08:33:38;5.10;99.90
8684;DHT22;4379;59.744;18.206;2023-10-31T08:36:06;5.10;99.90
8684;DHT22;4379;59.744;18.206;2023-10-31T08:38:33;5.10;99.90
8684;DHT22;4379;59.744;18.206;2023-10-31T08:41:00;5.10;99.90
8684;DHT22;4379;59.744;18.206;2023-10-31T08:43:28;5.20;99.90
8684;DHT22;4379;59.744;18.206;2023-10-31T08:45:55;5.10;99.90
8684;DHT22;4379;59.744;18.206;2023-10-31T08:48:22;5.20;99.90
8684;DHT22;4379;59.744;18.206;2023-10-31T08:50:49;5.10;99.90
8684;DHT22;4379;59.744;18.206;2023-10-31T08:53:16;5.20;99.90
8684;DHT22;4379;59.744;18.206;2023-10-31T08:55:43;5.10;99.90
8684;DHT22;4379;59.744;18.206;2023-10-31T08:58:11;5.10;99.90
8684;DHT22;4379;59.744;18.206;2023-10-31T09:00:40;5.20;99.90
8684;DHT22;4379;59.744;18.206;2023-10-31T09:03:09;5.10;99.90
8684;DHT22;4379;59.744;18.206;2023-10-31T09:05:37;5.10;99.90
8684;DHT22;4379;59.744;18.206;2023-10-31T09:08:04;5.20;99.90
8684;DHT22;4379;59.744;18.206;2023-10-31T09:10:35;5.10;99.90
8684;DHT22;4379;59.744;18.206;2023-10-31T09:13:04;5.00;99.90
8684;DHT22;4379;59.744;18.206;2023-10-31T09:15:31;5.20;99.90
8684;DHT22;4379;59.744;18.206;2023-10-31T09:17:58;5.30;99.90
8684;DHT22;4379;59.744;18.206;2023-10-31T09:20:25;5.10;99.90
8684;DHT22;4379;59.744;18.206;2023-10-31T09:22:53;5.30;99.90
8684;DHT22;4379;59.744;18.206;2023-10-31T09:25:20;5.30;99.90
8684;DHT22;4379;59.744;18.206;2023-10-31T09:27:47;5.40;99.90
8684;DHT22;4379;59.744;18.206;2023-10-31T09:30:14;5.40;99.90
8684;DHT22;4379;59.744;18.206;2023-10-31T09:32:41;5.40;99.90
8684;DHT22;4379;59.744;18.206;2023-10-31T09:35:09;5.50;99.90
8684;DHT22;4379;59.744;18.206;2023-10-31T09:37:38;5.60;99.90
8684;DHT22;4379;59.744;18.206;2023-10-31T09:40:06;5.70;99.90
8684;DHT22;4379;59.744;18.206;2023-10-31T09:42:33;5.80;99.90
8684;DHT22;4379;59.744;18.206;2023-10-31T09:45:00;5.50;99.90
8684;DHT22;4379;59.744;18.206;2023-10-31T09:47:29;5.50;99.90
8684;DHT22;4379;59.744;18.206;2023-10-31T09:49:58;5.70;99.90
8684;DHT22;4379;59.744;18.206;2023-10-31T09:52:26;5.80;99.90
8684;DHT22;4379;59.744;18.206;2023-10-31T09:54:53;5.90;99.90
8684;DHT22;4379;59.744;18.206;2023-10-31T09:57:21;6.00;99.90
8684;DHT22;4379;59.744;18.206;2023-10-31T09:59:48;6.00;99.90
8684;DHT22;4379;59.744;18.206;2023-10-31T10:02:15;6.00;99.90
8684;DHT22;4379;59.744;18.206;2023-10-31T10:04:43;5.80;99.90
8684;DHT22;4379;59.744;18.206;2023-10-31T10:07:17;5.80;99.90
8684;DHT22;4379;59.744;18.206;2023-10-31T10:09:46;5.80;99.90
8684;DHT22;4379;59.744;18.206;2023-10-31T10:12:15;5.90;99.90
8684;DHT22;4379;59.744;18.206;2023-10-31T10:14:44;6.00;99.90
8684;DHT22;4379;59.744;18.206;2023-10-31T10:17:22;6.00;99.90
8684;DHT22;4379;59.744;18.206;2023-10-31T10:22:39;5.90;99.90
8684;DHT22;4379;59.744;18.206;2023-10-31T10:25:07;6.10;99.90
8684;DHT22;4379;59.744;18.206;2023-10-31T10:27:34;6.10;99.90
8684;DHT22;4379;59.744;18.206;2023-10-31T10:30:03;6.10;99.90
8684;DHT22;4379;59.744;18.206;2023-10-31T10:32:31;6.00;99.90
8684;DHT22;4379;59.744;18.206;2023-10-31T10:34:58;5.90;99.90
8684;DHT22;4379;59.744;18.206;2023-10-31T10:37:26;5.90;99.90
8684;DHT22;4379;59.744;18.206;2023-10-31T10:39:54;6.00;99.90
8684;DHT22;4379;59.744;18.206;2023-10-31T10:42:33;6.00;99.90
8684;DHT22;4379;59.744;18.206;2023-10-31T10:45:04;6.10;99.90
8684;DHT22;4379;59.744;18.206;2023-10-31T10:47:33;6.00;99.90
8684;DHT22;4379;59.744;18.206;2023-10-31T10:50:02;6.00;99.90
8684;DHT22;4379;59.744;18.206;2023-10-31T10:52:42;6.00;99.90
8684;DHT22;4379;59.744;18.206;2023-10-31T10:55:14;6.00;99.90
8684;DHT22;4379;59.744;18.206;2023-10-31T10:58:06;6.00;99.90
8684;DHT22;4379;59.744;18.206;2023-10-31T11:00:36;5.90;99.90
8684;DHT22;4379;59.744;18.206;2023-10-31T11:03:05;6.10;99.90
8684;DHT22;4379;59.744;18.206;2023-10-31T11:05:34;6.10;99.90
8684;DHT22;4379;59.744;18.206;2023-10-31T11:08:02;6.10;99.90
8684;DHT22;4379;59.744;18.206;2023-10-31T11:10:30;5.90;99.90
8684;DHT22;4379;59.744;18.206;2023-10-31T11:12:58;5.90;99.90
8684;DHT22;4379;59.744;18.206;2023-10-31T11:15:25;5.90;99.90
8684;DHT22;4379;59.744;18.206;2023-10-31T11:17:55;5.90;99.90
8684;DHT22;4379;59.744;18.206;2023-10-31T11:20:24;6.00;99.90
8684;DHT22;4379;59.744;18.206;2023-10-31T11:22:55;6.00;99.90
8684;DHT22;4379;59.744;18.206;2023-10-31T11:25:26;6.00;99.90
8684;DHT22;4379;59.744;18.206;2023-10-31T11:28:15;6.00;99.90
8684;DHT22;4379;59.744;18.206;2023-10-31T11:30:42;6.00;99.90
8684;DHT22;4379;59.744;18.206;2023-10-31T11:33:14;6.00;99.90
8684;DHT22;4379;59.744;18.206;2023-10-31T11:35:42;6.00;99.90
8684;DHT22;4379;59.744;18.206;2023-10-31T11:38:12;5.90;99.90
8684;DHT22;4379;59.744;18.206;2023-10-31T11:41:01;5.90;99.90
8684;DHT22;4379;59.744;18.206;2023-10-31T11:46:22;5.70;99.90
8684;DHT22;4379;59.744;18.206;2023-10-31T11:48:53;5.80;99.90
8684;DHT22;4379;59.744;18.206;2023-10-31T11:51:23;5.80;99.90
8684;DHT22;4379;59.744;18.206;2023-10-31T11:53:51;5.90;99.90
8684;DHT22;4379;59.744;18.206;2023-10-31T11:56:19;5.80;99.90
8684;DHT22;4379;59.744;18.206;2023-10-31T11:59:03;5.80;99.90
8684;DHT22;4379;59.744;18.206;2023-10-31T12:01:31;5.80;99.90
8684;DHT22;4379;59.744;18.206;2023-10-31T12:03:58;5.90;99.90
8684;DHT22;4379;59.744;18.206;2023-10-31T12:06:26;5.80;99.90
8684;DHT22;4379;59.744;18.206;2023-10-31T12:08:53;5.90;99.90
8684;DHT22;4379;59.744;18.206;2023-10-31T12:11:22;5.90;99.90
8684;DHT22;4379;59.744;18.206;2023-10-31T12:16:30;5.90;99.90
8684;DHT22;4379;59.744;18.206;2023-10-31T12:19:02;6.00;99.90
8684;DHT22;4379;59.744;18.206;2023-10-31T12:21:45;5.90;99.90
8684;DHT22;4379;59.744;18.206;2023-10-31T12:24:15;6.00;99.90
8684;DHT22;4379;59.744;18.206;2023-10-31T12:26:43;5.80;99.90
8684;DHT22;4379;59.744;18.206;2023-10-31T12:29:16;5.90;99.90
8684;DHT22;4379;59.744;18.206;2023-10-31T12:31:52;5.80;99.90
8684;DHT22;4379;59.744;18.206;2023-10-31T12:34:22;5.90;99.90
8684;DHT22;4379;59.744;18.206;2023-10-31T12:36:51;5.80;99.90
8684;DHT22;4379;59.744;18.206;2023-10-31T12:39:23;5.80;99.90
8684;DHT22;4379;59.744;18.206;2023-10-31T12:41:51;5.80;99.90
8684;DHT22;4379;59.744;18.206;2023-10-31T12:44:26;5.80;99.90
8684;DHT22;4379;59.744;18.206;2023-10-31T12:46:55;5.80;99.90
8684;DHT22;4379;59.744;18.206;2023-10-31T12:49:23;5.90;99.90
8684;DHT22;4379;59.744;18.206;2023-10-31T12:52:01;5.80;99.90
8684;DHT22;4379;59.744;18.206;2023-10-31T12:57:04;5.60;99.90
8684;DHT22;4379;59.744;18.206;2023-10-31T12:59:35;5.80;99.90
8684;DHT22;4379;59.744;18.206;2023-10-31T13:02:06;5.80;99.90
8684;DHT22;4379;59.744;18.206;2023-10-31T13:04:34;5.60;99.90
8684;DHT22;4379;59.744;18.206;2023-10-31T13:07:03;5.60;99.90
8684;DHT22;4379;59.744;18.206;2023-10-31T13:09:35;5.50;99.90
8684;DHT22;4379;59.744;18.206;2023-10-31T13:12:05;5.30;99.90
8684;DHT22;4379;59.744;18.206;2023-10-31T13:14:33;5.40;99.90
8684;DHT22;4379;59.744;18.206;2023-10-31T13:17:00;5.40;99.90
8684;DHT22;4379;59.744;18.206;2023-10-31T13:19:29;5.40;99.90
8684;DHT22;4379;59.744;18.206;2023-10-31T13:21:57;5.40;99.90
8684;DHT22;4379;59.744;18.206;2023-10-31T13:24:24;5.40;99.90
8684;DHT22;4379;59.744;18.206;2023-10-31T13:26:51;5.50;99.90
8684;DHT22;4379;59.744;18.206;2023-10-31T13:29:22;5.20;99.90
8684;DHT22;4379;59.744;18.206;2023-10-31T13:31:53;5.30;99.90
8684;DHT22;4379;59.744;18.206;2023-10-31T13:34:20;5.20;99.90
8684;DHT22;4379;59.744;18.206;2023-10-31T13:36:47;5.20;99.90
8684;DHT22;4379;59.744;18.206;2023-10-31T13:39:17;5.20;99.90
8684;DHT22;4379;59.744;18.206;2023-10-31T13:41:45;5.20;99.90
8684;DHT22;4379;59.744;18.206;2023-10-31T13:44:13;5.20;99.90
8684;DHT22;4379;59.744;18.206;2023-10-31T13:46:40;5.20;99.90
8684;DHT22;4379;59.744;18.206;2023-10-31T13:49:07;5.10;99.90
8684;DHT22;4379;59.744;18.206;2023-10-31T13:51:35;5.20;99.90
8684;DHT22;4379;59.744;18.206;2023-10-31T13:54:02;5.20;99.90
8684;DHT22;4379;59.744;18.206;2023-10-31T13:56:29;5.10;99.90
8684;DHT22;4379;59.744;18.206;2023-10-31T13:58:58;5.00;99.90
8684;DHT22;4379;59.744;18.206;2023-10-31T14:01:25;5.00;99.90
8684;DHT22;4379;59.744;18.206;2023-10-31T14:03:53;5.00;99.90
8684;DHT22;4379;59.744;18.206;2023-10-31T14:06:20;5.10;99.90
8684;DHT22;4379;59.744;18.206;2023-10-31T14:08:47;5.00;99.90
8684;DHT22;4379;59.744;18.206;2023-10-31T14:11:14;4.90;99.90
8684;DHT22;4379;59.744;18.206;2023-10-31T14:13:42;5.10;99.90
8684;DHT22;4379;59.744;18.206;2023-10-31T14:16:11;5.00;99.90
8684;DHT22;4379;59.744;18.206;2023-10-31T14:18:39;5.00;99.90
8684;DHT22;4379;59.744;18.206;2023-10-31T14:21:07;4.90;99.90
8684;DHT22;4379;59.744;18.206;2023-10-31T14:23:34;5.00;99.90
8684;DHT22;4379;59.744;18.206;2023-10-31T14:26:02;4.90;99.90
8684;DHT22;4379;59.744;18.206;2023-10-31T14:28:29;4.90;99.90
8684;DHT22;4379;59.744;18.206;2023-10-31T14:30:56;4.90;99.90
8684;DHT22;4379;59.744;18.206;2023-10-31T14:33:23;4.90;99.90
8684;DHT22;4379;59.744;18.206;2023-10-31T14:35:51;4.90;99.90
8684;DHT22;4379;59.744;18.206;2023-10-31T14:38:18;4.90;99.90
8684;DHT22;4379;59.744;18.206;2023-10-31T14:40:45;4.80;99.90
8684;DHT22;4379;59.744;18.206;2023-10-31T14:43:12;4.80;99.90
8684;DHT22;4379;59.744;18.206;2023-10-31T14:45:45;4.90;99.90
8684;DHT22;4379;59.744;18.206;2023-10-31T14:48:12;4.80;99.90
8684;DHT22;4379;59.744;18.206;2023-10-31T14:50:39;4.90;99.90
8684;DHT22;4379;59.744;18.206;2023-10-31T14:53:06;4.90;99.90
8684;DHT22;4379;59.744;18.206;2023-10-31T14:55:34;4.80;99.90
8684;DHT22;4379;59.744;18.206;2023-10-31T14:58:01;4.70;99.90
8684;DHT22;4379;59.744;18.206;2023-10-31T15:00:28;4.80;99.90
8684;DHT22;4379;59.744;18.206;2023-10-31T15:02:55;4.90;99.90
8684;DHT22;4379;59.744;18.206;2023-10-31T15:05:25;5.00;99.90
8684;DHT22;4379;59.744;18.206;2023-10-31T15:07:52;4.80;99.90
8684;DHT22;4379;59.744;18.206;2023-10-31T15:10:22;4.80;99.90
8684;DHT22;4379;59.744;18.206;2023-10-31T15:12:51;4.70;99.90
8684;DHT22;4379;59.744;18.206;2023-10-31T15:15:18;4.70;99.90
8684;DHT22;4379;59.744;18.206;2023-10-31T15:17:45;4.70;99.90
8684;DHT22;4379;59.744;18.206;2023-10-31T15:20:14;4.60;99.90
8684;DHT22;4379;59.744;18.206;2023-10-31T15:22:42;4.70;99.90
8684;DHT22;4379;59.744;18.206;2023-10-31T15:25:09;4.70;99.90
8684;DHT22;4379;59.744;18.206;2023-10-31T15:27:37;4.60;99.90
8684;DHT22;4379;59.744;18.206;2023-10-31T15:30:06;4.60;99.90
8684;DHT22;4379;59.744;18.206;2023-10-31T15:32:35;4.60;99.90
8684;DHT22;4379;59.744;18.206;2023-10-31T15:35:06;4.70;99.90
8684;DHT22;4379;59.744;18.206;2023-10-31T15:37:35;4.70;99.90
8684;DHT22;4379;59.744;18.206;2023-10-31T15:40:03;4.70;99.90
8684;DHT22;4379;59.744;18.206;2023-10-31T15:42:30;4.60;99.90
8684;DHT22;4379;59.744;18.206;2023-10-31T15:44:57;4.60;99.90
8684;DHT22;4379;59.744;18.206;2023-10-31T15:47:24;4.60;99.90
8684;DHT22;4379;59.744;18.206;2023-10-31T15:49:52;4.50;99.90
8684;DHT22;4379;59.744;18.206;2023-10-31T15:52:19;4.60;99.90
8684;DHT22;4379;59.744;18.206;2023-10-31T15:54:45;4.60;99.90
8684;DHT22;4379;59.744;18.206;2023-10-31T15:57:12;4.70;99.90
8684;DHT22;4379;59.744;18.206;2023-10-31T15:59:44;4.70;99.90
8684;DHT22;4379;59.744;18.206;2023-10-31T16:02:11;4.60;99.90
8684;DHT22;4379;59.744;18.206;2023-10-31T16:04:38;4.60;99.90
8684;DHT22;4379;59.744;18.206;2023-10-31T16:07:06;4.60;99.90
8684;DHT22;4379;59.744;18.206;2023-10-31T16:09:36;4.60;99.90
8684;DHT22;4379;59.744;18.206;2023-10-31T16:12:03;4.60;99.90
8684;DHT22;4379;59.744;18.206;2023-10-31T16:14:32;4.60;99.90
8684;DHT22;4379;59.744;18.206;2023-10-31T16:16:59;4.60;99.90
8684;DHT22;4379;59.744;18.206;2023-10-31T16:19:27;4.50;99.90